sensor_id;sensor_type;location;lat;lon;timestamp;P1;durP1;ratioP1;P2;durP2;ratioP2
64667;SDS011;51077;42.716;23.344;2022-07-06T00:01:39;10.73;;;7.37;;
64667;SDS011;51077;42.716;23.344;2022-07-06T00:04:04;12.37;;;8.00;;
64667;SDS011;51077;42.716;23.344;2022-07-06T00:06:30;9.23;;;7.40;;
64667;SDS011;51077;42.716;23.344;2022-07-06T00:08:56;10.57;;;7.40;;
64667;SDS011;51077;42.716;23.344;2022-07-06T00:11:22;10.70;;;7.40;;
64667;SDS011;51077;42.716;23.344;2022-07-06T00:13:48;9.03;;;7.40;;
64667;SDS011;51077;42.716;23.344;2022-07-06T00:16:13;12.37;;;7.47;;
64667;SDS011;51077;42.716;23.344;2022-07-06T00:18:39;12.07;;;7.73;;
64667;SDS011;51077;42.716;23.344;2022-07-06T00:21:04;10.57;;;7.47;;
64667;SDS011;51077;42.716;23.344;2022-07-06T00:23:30;10.43;;;7.67;;
64667;SDS011;51077;42.716;23.344;2022-07-06T00:25:55;11.10;;;7.47;;
64667;SDS011;51077;42.716;23.344;2022-07-06T00:28:21;9.73;;;7.17;;
64667;SDS011;51077;42.716;23.344;2022-07-06T00:30:46;10.90;;;7.40;;
64667;SDS011;51077;42.716;23.344;2022-07-06T00:33:12;10.20;;;7.60;;
64667;SDS011;51077;42.716;23.344;2022-07-06T00:35:37;9.20;;;6.77;;
64667;SDS011;51077;42.716;23.344;2022-07-06T00:38:02;9.97;;;7.17;;
64667;SDS011;51077;42.716;23.344;2022-07-06T00:40:28;10.40;;;6.80;;
64667;SDS011;51077;42.716;23.344;2022-07-06T00:42:55;10.35;;;7.60;;
64667;SDS011;51077;42.716;23.344;2022-07-06T00:45:21;9.82;;;6.82;;
64667;SDS011;51077;42.716;23.344;2022-07-06T00:47:46;9.43;;;7.10;;
64667;SDS011;51077;42.716;23.344;2022-07-06T00:50:13;8.20;;;6.70;;
64667;SDS011;51077;42.716;23.344;2022-07-06T00:52:50;10.15;;;6.75;;
64667;SDS011;51077;42.716;23.344;2022-07-06T00:55:20;9.88;;;7.90;;
64667;SDS011;51077;42.716;23.344;2022-07-06T00:57:51;11.55;;;7.55;;
64667;SDS011;51077;42.716;23.344;2022-07-06T01:00:18;8.70;;;6.50;;
64667;SDS011;51077;42.716;23.344;2022-07-06T01:02:45;10.40;;;6.97;;
64667;SDS011;51077;42.716;23.344;2022-07-06T01:05:12;10.45;;;6.57;;
64667;SDS011;51077;42.716;23.344;2022-07-06T01:07:39;8.50;;;6.88;;
64667;SDS011;51077;42.716;23.344;2022-07-06T01:10:06;9.45;;;6.90;;
64667;SDS011;51077;42.716;23.344;2022-07-06T01:12:34;10.68;;;7.50;;
64667;SDS011;51077;42.716;23.344;2022-07-06T01:15:01;9.00;;;7.20;;
64667;SDS011;51077;42.716;23.344;2022-07-06T01:17:28;12.07;;;8.10;;
64667;SDS011;51077;42.716;23.344;2022-07-06T01:19:53;13.57;;;7.60;;
64667;SDS011;51077;42.716;23.344;2022-07-06T01:22:19;11.17;;;7.40;;
64667;SDS011;51077;42.716;23.344;2022-07-06T01:24:44;12.70;;;8.33;;
64667;SDS011;51077;42.716;23.344;2022-07-06T01:27:10;8.97;;;6.97;;
64667;SDS011;51077;42.716;23.344;2022-07-06T01:29:35;11.93;;;8.47;;
64667;SDS011;51077;42.716;23.344;2022-07-06T01:32:01;8.63;;;7.73;;
64667;SDS011;51077;42.716;23.344;2022-07-06T01:34:27;10.17;;;8.03;;
64667;SDS011;51077;42.716;23.344;2022-07-06T01:36:52;10.00;;;7.07;;
64667;SDS011;51077;42.716;23.344;2022-07-06T01:39:18;10.98;;;7.90;;
64667;SDS011;51077;42.716;23.344;2022-07-06T01:41:44;10.53;;;7.20;;
64667;SDS011;51077;42.716;23.344;2022-07-06T01:44:10;8.53;;;7.20;;
64667;SDS011;51077;42.716;23.344;2022-07-06T01:46:35;10.27;;;7.70;;
64667;SDS011;51077;42.716;23.344;2022-07-06T01:49:01;8.97;;;7.20;;
64667;SDS011;51077;42.716;23.344;2022-07-06T01:51:26;12.30;;;8.00;;
64667;SDS011;51077;42.716;23.344;2022-07-06T01:53:51;10.50;;;7.17;;
64667;SDS011;51077;42.716;23.344;2022-07-06T01:56:18;12.52;;;7.15;;
64667;SDS011;51077;42.716;23.344;2022-07-06T01:58:44;9.15;;;7.03;;
64667;SDS011;51077;42.716;23.344;2022-07-06T02:01:11;10.10;;;7.03;;
64667;SDS011;51077;42.716;23.344;2022-07-06T02:03:38;10.00;;;7.00;;
64667;SDS011;51077;42.716;23.344;2022-07-06T02:06:04;10.77;;;7.47;;
64667;SDS011;51077;42.716;23.344;2022-07-06T02:08:30;11.65;;;7.25;;
64667;SDS011;51077;42.716;23.344;2022-07-06T02:10:56;10.35;;;7.40;;
64667;SDS011;51077;42.716;23.344;2022-07-06T02:13:22;9.80;;;6.73;;
64667;SDS011;51077;42.716;23.344;2022-07-06T02:15:47;11.33;;;7.20;;
64667;SDS011;51077;42.716;23.344;2022-07-06T02:18:13;8.30;;;6.77;;
64667;SDS011;51077;42.716;23.344;2022-07-06T02:20:38;13.77;;;7.20;;
64667;SDS011;51077;42.716;23.344;2022-07-06T02:23:03;11.57;;;7.33;;
64667;SDS011;51077;42.716;23.344;2022-07-06T02:25:29;9.63;;;7.47;;
64667;SDS011;51077;42.716;23.344;2022-07-06T02:27:54;8.20;;;6.53;;
64667;SDS011;51077;42.716;23.344;2022-07-06T02:30:20;8.50;;;6.33;;
64667;SDS011;51077;42.716;23.344;2022-07-06T02:32:45;9.20;;;6.97;;
64667;SDS011;51077;42.716;23.344;2022-07-06T02:35:11;9.20;;;7.20;;
64667;SDS011;51077;42.716;23.344;2022-07-06T02:37:36;10.13;;;6.83;;
64667;SDS011;51077;42.716;23.344;2022-07-06T02:40:02;8.97;;;6.70;;
64667;SDS011;51077;42.716;23.344;2022-07-06T02:42:27;10.73;;;6.77;;
64667;SDS011;51077;42.716;23.344;2022-07-06T02:44:53;8.07;;;6.90;;
64667;SDS011;51077;42.716;23.344;2022-07-06T02:47:19;7.88;;;6.20;;
64667;SDS011;51077;42.716;23.344;2022-07-06T02:49:44;8.13;;;6.50;;
64667;SDS011;51077;42.716;23.344;2022-07-06T02:52:10;8.33;;;6.63;;
64667;SDS011;51077;42.716;23.344;2022-07-06T02:54:35;7.47;;;6.37;;
64667;SDS011;51077;42.716;23.344;2022-07-06T02:57:01;9.33;;;6.30;;
64667;SDS011;51077;42.716;23.344;2022-07-06T02:59:26;10.83;;;6.17;;
64667;SDS011;51077;42.716;23.344;2022-07-06T03:01:51;10.27;;;6.00;;
64667;SDS011;51077;42.716;23.344;2022-07-06T03:04:17;7.77;;;6.10;;
64667;SDS011;51077;42.716;23.344;2022-07-06T03:06:42;9.40;;;6.60;;
64667;SDS011;51077;42.716;23.344;2022-07-06T03:09:08;8.17;;;7.00;;
64667;SDS011;51077;42.716;23.344;2022-07-06T03:11:33;11.30;;;6.93;;
64667;SDS011;51077;42.716;23.344;2022-07-06T03:14:05;9.23;;;6.82;;
64667;SDS011;51077;42.716;23.344;2022-07-06T03:16:31;10.52;;;6.43;;
64667;SDS011;51077;42.716;23.344;2022-07-06T03:18:56;9.83;;;6.53;;
64667;SDS011;51077;42.716;23.344;2022-07-06T03:21:25;8.37;;;7.00;;
64667;SDS011;51077;42.716;23.344;2022-07-06T03:23:51;10.75;;;7.93;;
64667;SDS011;51077;42.716;23.344;2022-07-06T03:26:16;11.00;;;8.03;;
64667;SDS011;51077;42.716;23.344;2022-07-06T03:28:42;11.10;;;7.93;;
64667;SDS011;51077;42.716;23.344;2022-07-06T03:31:07;12.77;;;8.27;;
64667;SDS011;51077;42.716;23.344;2022-07-06T03:33:32;11.20;;;7.03;;
64667;SDS011;51077;42.716;23.344;2022-07-06T03:35:58;10.07;;;7.13;;
64667;SDS011;51077;42.716;23.344;2022-07-06T03:38:23;9.73;;;6.60;;
64667;SDS011;51077;42.716;23.344;2022-07-06T03:40:49;9.40;;;6.70;;
64667;SDS011;51077;42.716;23.344;2022-07-06T03:43:14;8.47;;;6.70;;
64667;SDS011;51077;42.716;23.344;2022-07-06T03:45:40;9.90;;;6.53;;
64667;SDS011;51077;42.716;23.344;2022-07-06T03:48:05;11.93;;;6.63;;
64667;SDS011;51077;42.716;23.344;2022-07-06T03:50:30;8.60;;;6.20;;
64667;SDS011;51077;42.716;23.344;2022-07-06T03:52:56;11.87;;;6.20;;
64667;SDS011;51077;42.716;23.344;2022-07-06T03:55:22;8.97;;;6.33;;
64667;SDS011;51077;42.716;23.344;2022-07-06T03:57:47;9.57;;;5.97;;
64667;SDS011;51077;42.716;23.344;2022-07-06T04:00:13;11.27;;;6.10;;
64667;SDS011;51077;42.716;23.344;2022-07-06T04:02:39;9.75;;;5.97;;
64667;SDS011;51077;42.716;23.344;2022-07-06T04:05:04;9.30;;;6.17;;
64667;SDS011;51077;42.716;23.344;2022-07-06T04:07:30;7.87;;;6.60;;
64667;SDS011;51077;42.716;23.344;2022-07-06T04:09:55;10.67;;;7.53;;
64667;SDS011;51077;42.716;23.344;2022-07-06T04:12:21;7.87;;;6.00;;
64667;SDS011;51077;42.716;23.344;2022-07-06T04:14:46;7.13;;;6.03;;
64667;SDS011;51077;42.716;23.344;2022-07-06T04:17:12;10.53;;;5.80;;
64667;SDS011;51077;42.716;23.344;2022-07-06T04:19:56;7.97;;;5.70;;
64667;SDS011;51077;42.716;23.344;2022-07-06T04:22:21;7.90;;;5.90;;
64667;SDS011;51077;42.716;23.344;2022-07-06T04:24:46;9.13;;;5.97;;
64667;SDS011;51077;42.716;23.344;2022-07-06T04:27:12;11.00;;;6.90;;
64667;SDS011;51077;42.716;23.344;2022-07-06T04:29:37;9.80;;;5.97;;
64667;SDS011;51077;42.716;23.344;2022-07-06T04:32:03;11.53;;;6.50;;
64667;SDS011;51077;42.716;23.344;2022-07-06T04:34:29;11.13;;;5.97;;
64667;SDS011;51077;42.716;23.344;2022-07-06T04:36:54;8.07;;;6.17;;
64667;SDS011;51077;42.716;23.344;2022-07-06T04:39:19;10.90;;;6.80;;
64667;SDS011;51077;42.716;23.344;2022-07-06T04:41:45;11.43;;;6.00;;
64667;SDS011;51077;42.716;23.344;2022-07-06T04:44:10;13.23;;;5.80;;
64667;SDS011;51077;42.716;23.344;2022-07-06T04:46:36;9.13;;;6.13;;
64667;SDS011;51077;42.716;23.344;2022-07-06T04:49:01;9.67;;;5.73;;
64667;SDS011;51077;42.716;23.344;2022-07-06T04:51:27;8.97;;;6.20;;
64667;SDS011;51077;42.716;23.344;2022-07-06T04:53:52;11.43;;;6.80;;
64667;SDS011;51077;42.716;23.344;2022-07-06T04:56:17;13.50;;;7.03;;
64667;SDS011;51077;42.716;23.344;2022-07-06T04:58:43;9.80;;;6.77;;
64667;SDS011;51077;42.716;23.344;2022-07-06T05:01:08;14.23;;;7.67;;
64667;SDS011;51077;42.716;23.344;2022-07-06T05:03:34;15.03;;;8.70;;
64667;SDS011;51077;42.716;23.344;2022-07-06T05:06:05;13.07;;;8.15;;
64667;SDS011;51077;42.716;23.344;2022-07-06T05:08:31;13.20;;;8.30;;
64667;SDS011;51077;42.716;23.344;2022-07-06T05:10:57;14.37;;;8.60;;
64667;SDS011;51077;42.716;23.344;2022-07-06T05:13:22;13.97;;;8.53;;
64667;SDS011;51077;42.716;23.344;2022-07-06T05:15:47;12.10;;;9.27;;
64667;SDS011;51077;42.716;23.344;2022-07-06T05:18:13;11.60;;;9.40;;
64667;SDS011;51077;42.716;23.344;2022-07-06T05:20:39;13.93;;;9.17;;
64667;SDS011;51077;42.716;23.344;2022-07-06T05:23:04;11.37;;;8.80;;
64667;SDS011;51077;42.716;23.344;2022-07-06T05:25:29;12.80;;;8.97;;
64667;SDS011;51077;42.716;23.344;2022-07-06T05:27:55;14.93;;;9.87;;
64667;SDS011;51077;42.716;23.344;2022-07-06T05:30:21;12.63;;;9.73;;
64667;SDS011;51077;42.716;23.344;2022-07-06T05:32:46;11.50;;;9.00;;
64667;SDS011;51077;42.716;23.344;2022-07-06T05:35:11;13.53;;;9.40;;
64667;SDS011;51077;42.716;23.344;2022-07-06T05:37:37;15.10;;;9.73;;
64667;SDS011;51077;42.716;23.344;2022-07-06T05:40:03;15.40;;;10.17;;
64667;SDS011;51077;42.716;23.344;2022-07-06T05:42:28;16.10;;;10.73;;
64667;SDS011;51077;42.716;23.344;2022-07-06T05:44:54;16.27;;;11.87;;
64667;SDS011;51077;42.716;23.344;2022-07-06T05:47:21;16.38;;;11.73;;
64667;SDS011;51077;42.716;23.344;2022-07-06T05:50:06;14.05;;;10.55;;
64667;SDS011;51077;42.716;23.344;2022-07-06T05:52:38;13.68;;;10.65;;
64667;SDS011;51077;42.716;23.344;2022-07-06T05:55:08;16.42;;;11.15;;
64667;SDS011;51077;42.716;23.344;2022-07-06T05:57:34;15.23;;;11.10;;
64667;SDS011;51077;42.716;23.344;2022-07-06T06:00:00;14.63;;;11.07;;
64667;SDS011;51077;42.716;23.344;2022-07-06T06:02:25;16.20;;;10.67;;
64667;SDS011;51077;42.716;23.344;2022-07-06T06:04:52;14.40;;;9.67;;
64667;SDS011;51077;42.716;23.344;2022-07-06T06:07:18;14.80;;;9.75;;
64667;SDS011;51077;42.716;23.344;2022-07-06T06:09:43;11.83;;;9.30;;
64667;SDS011;51077;42.716;23.344;2022-07-06T06:12:09;10.83;;;8.47;;
64667;SDS011;51077;42.716;23.344;2022-07-06T06:14:34;13.30;;;8.80;;
64667;SDS011;51077;42.716;23.344;2022-07-06T06:17:00;13.20;;;9.03;;
64667;SDS011;51077;42.716;23.344;2022-07-06T06:19:25;13.73;;;9.03;;
64667;SDS011;51077;42.716;23.344;2022-07-06T06:21:50;13.77;;;9.07;;
64667;SDS011;51077;42.716;23.344;2022-07-06T06:24:17;15.15;;;9.73;;
64667;SDS011;51077;42.716;23.344;2022-07-06T06:26:42;13.40;;;10.20;;
64667;SDS011;51077;42.716;23.344;2022-07-06T06:29:08;17.77;;;11.23;;
64667;SDS011;51077;42.716;23.344;2022-07-06T06:31:33;13.83;;;10.33;;
64667;SDS011;51077;42.716;23.344;2022-07-06T06:33:59;11.37;;;9.73;;
64667;SDS011;51077;42.716;23.344;2022-07-06T06:36:25;12.20;;;9.57;;
64667;SDS011;51077;42.716;23.344;2022-07-06T06:38:50;13.43;;;9.37;;
64667;SDS011;51077;42.716;23.344;2022-07-06T06:41:15;16.77;;;8.93;;
64667;SDS011;51077;42.716;23.344;2022-07-06T06:43:41;12.13;;;9.13;;
64667;SDS011;51077;42.716;23.344;2022-07-06T06:46:06;10.87;;;8.03;;
64667;SDS011;51077;42.716;23.344;2022-07-06T06:48:32;10.67;;;8.40;;
64667;SDS011;51077;42.716;23.344;2022-07-06T06:50:57;10.50;;;7.67;;
64667;SDS011;51077;42.716;23.344;2022-07-06T06:53:23;8.47;;;7.10;;
64667;SDS011;51077;42.716;23.344;2022-07-06T06:55:48;10.60;;;7.63;;
64667;SDS011;51077;42.716;23.344;2022-07-06T06:58:13;11.87;;;8.00;;
64667;SDS011;51077;42.716;23.344;2022-07-06T07:00:39;10.80;;;7.47;;
64667;SDS011;51077;42.716;23.344;2022-07-06T07:03:04;14.47;;;9.13;;
64667;SDS011;51077;42.716;23.344;2022-07-06T07:05:30;15.67;;;8.87;;
64667;SDS011;51077;42.716;23.344;2022-07-06T07:07:55;8.50;;;7.40;;
64667;SDS011;51077;42.716;23.344;2022-07-06T07:10:24;10.13;;;8.20;;
64667;SDS011;51077;42.716;23.344;2022-07-06T07:12:50;11.75;;;7.80;;
64667;SDS011;51077;42.716;23.344;2022-07-06T07:15:16;12.23;;;9.07;;
64667;SDS011;51077;42.716;23.344;2022-07-06T07:17:41;12.00;;;8.53;;
64667;SDS011;51077;42.716;23.344;2022-07-06T07:20:07;9.73;;;7.83;;
64667;SDS011;51077;42.716;23.344;2022-07-06T07:22:33;11.90;;;8.25;;
64667;SDS011;51077;42.716;23.344;2022-07-06T07:24:58;9.83;;;8.83;;
64667;SDS011;51077;42.716;23.344;2022-07-06T07:27:25;11.23;;;8.00;;
64667;SDS011;51077;42.716;23.344;2022-07-06T07:29:50;10.55;;;8.70;;
64667;SDS011;51077;42.716;23.344;2022-07-06T07:32:16;11.70;;;8.63;;
64667;SDS011;51077;42.716;23.344;2022-07-06T08:49:22;14.05;;;7.65;;
64667;SDS011;51077;42.716;23.344;2022-07-06T08:51:48;11.00;;;7.60;;
64667;SDS011;51077;42.716;23.344;2022-07-06T08:54:14;10.10;;;7.47;;
64667;SDS011;51077;42.716;23.344;2022-07-06T08:56:39;10.70;;;7.80;;
64667;SDS011;51077;42.716;23.344;2022-07-06T08:59:06;9.95;;;7.53;;
64667;SDS011;51077;42.716;23.344;2022-07-06T09:01:33;10.63;;;7.60;;
64667;SDS011;51077;42.716;23.344;2022-07-06T09:04:00;11.85;;;8.65;;
64667;SDS011;51077;42.716;23.344;2022-07-06T09:06:30;11.70;;;8.30;;
64667;SDS011;51077;42.716;23.344;2022-07-06T09:08:56;12.53;;;8.90;;
64667;SDS011;51077;42.716;23.344;2022-07-06T09:11:22;10.67;;;8.90;;
64667;SDS011;51077;42.716;23.344;2022-07-06T09:13:49;11.95;;;9.30;;
64667;SDS011;51077;42.716;23.344;2022-07-06T09:16:15;11.48;;;9.02;;
64667;SDS011;51077;42.716;23.344;2022-07-06T09:18:44;11.07;;;9.00;;
64667;SDS011;51077;42.716;23.344;2022-07-06T09:21:10;11.80;;;8.85;;
64667;SDS011;51077;42.716;23.344;2022-07-06T09:23:36;11.17;;;9.17;;
64667;SDS011;51077;42.716;23.344;2022-07-06T09:26:06;14.50;;;8.98;;
64667;SDS011;51077;42.716;23.344;2022-07-06T09:28:44;9.63;;;8.30;;
64667;SDS011;51077;42.716;23.344;2022-07-06T09:31:10;10.25;;;8.45;;
64667;SDS011;51077;42.716;23.344;2022-07-06T09:33:36;12.45;;;8.65;;
64667;SDS011;51077;42.716;23.344;2022-07-06T09:36:03;12.25;;;8.57;;
64667;SDS011;51077;42.716;23.344;2022-07-06T09:38:30;10.27;;;8.98;;
64667;SDS011;51077;42.716;23.344;2022-07-06T09:40:56;10.67;;;8.43;;
64667;SDS011;51077;42.716;23.344;2022-07-06T09:43:22;9.57;;;7.87;;
64667;SDS011;51077;42.716;23.344;2022-07-06T09:45:49;12.40;;;9.25;;
64667;SDS011;51077;42.716;23.344;2022-07-06T09:48:16;10.57;;;8.90;;
64667;SDS011;51077;42.716;23.344;2022-07-06T09:50:47;11.73;;;10.52;;
64667;SDS011;51077;42.716;23.344;2022-07-06T09:53:24;12.07;;;10.43;;
64667;SDS011;51077;42.716;23.344;2022-07-06T09:55:52;12.27;;;10.93;;
64667;SDS011;51077;42.716;23.344;2022-07-06T09:58:19;13.85;;;10.07;;
64667;SDS011;51077;42.716;23.344;2022-07-06T10:00:46;11.32;;;9.68;;
64667;SDS011;51077;42.716;23.344;2022-07-06T10:03:13;11.07;;;9.20;;
64667;SDS011;51077;42.716;23.344;2022-07-06T10:05:41;11.50;;;10.05;;
64667;SDS011;51077;42.716;23.344;2022-07-06T10:08:08;10.98;;;9.88;;
64667;SDS011;51077;42.716;23.344;2022-07-06T10:10:35;13.77;;;10.70;;
64667;SDS011;51077;42.716;23.344;2022-07-06T10:13:04;14.38;;;9.05;;
64667;SDS011;51077;42.716;23.344;2022-07-06T10:15:34;12.93;;;9.03;;
64667;SDS011;51077;42.716;23.344;2022-07-06T10:18:02;14.20;;;8.50;;
64667;SDS011;51077;42.716;23.344;2022-07-06T10:20:30;10.10;;;9.10;;
64667;SDS011;51077;42.716;23.344;2022-07-06T10:22:58;11.57;;;9.63;;
64667;SDS011;51077;42.716;23.344;2022-07-06T10:25:25;10.93;;;9.83;;
64667;SDS011;51077;42.716;23.344;2022-07-06T10:27:52;13.23;;;10.40;;
64667;SDS011;51077;42.716;23.344;2022-07-06T10:30:17;9.90;;;9.00;;
64667;SDS011;51077;42.716;23.344;2022-07-06T10:32:44;12.77;;;9.43;;
64667;SDS011;51077;42.716;23.344;2022-07-06T10:35:12;11.80;;;9.63;;
64667;SDS011;51077;42.716;23.344;2022-07-06T10:37:38;10.43;;;9.43;;
64667;SDS011;51077;42.716;23.344;2022-07-06T10:40:04;10.57;;;9.50;;
64667;SDS011;51077;42.716;23.344;2022-07-06T10:42:49;10.37;;;9.10;;
64667;SDS011;51077;42.716;23.344;2022-07-06T10:50:40;10.65;;;8.57;;
64667;SDS011;51077;42.716;23.344;2022-07-06T10:53:55;9.63;;;8.63;;
64667;SDS011;51077;42.716;23.344;2022-07-06T10:56:03;10.70;;;9.70;;
64667;SDS011;51077;42.716;23.344;2022-07-06T10:58:49;10.80;;;9.37;;
64667;SDS011;51077;42.716;23.344;2022-07-06T11:01:19;10.50;;;9.47;;
64667;SDS011;51077;42.716;23.344;2022-07-06T11:03:49;10.63;;;9.53;;
64667;SDS011;51077;42.716;23.344;2022-07-06T11:06:21;10.57;;;9.47;;
64667;SDS011;51077;42.716;23.344;2022-07-06T11:13:51;9.93;;;8.87;;
64667;SDS011;51077;42.716;23.344;2022-07-06T11:16:20;11.23;;;9.57;;
64667;SDS011;51077;42.716;23.344;2022-07-06T11:19:08;12.10;;;10.27;;
64667;SDS011;51077;42.716;23.344;2022-07-06T11:21:56;10.50;;;9.37;;
64667;SDS011;51077;42.716;23.344;2022-07-06T11:24:26;10.47;;;9.47;;
64667;SDS011;51077;42.716;23.344;2022-07-06T11:26:56;10.83;;;9.73;;
64667;SDS011;51077;42.716;23.344;2022-07-06T11:29:23;12.50;;;9.77;;
64667;SDS011;51077;42.716;23.344;2022-07-06T11:31:51;12.17;;;10.83;;
64667;SDS011;51077;42.716;23.344;2022-07-06T11:34:39;11.83;;;10.20;;
64667;SDS011;51077;42.716;23.344;2022-07-06T11:37:13;10.37;;;9.30;;
64667;SDS011;51077;42.716;23.344;2022-07-06T11:39:41;11.37;;;9.87;;
64667;SDS011;51077;42.716;23.344;2022-07-06T11:42:08;11.73;;;10.50;;
64667;SDS011;51077;42.716;23.344;2022-07-06T11:44:35;11.47;;;10.27;;
64667;SDS011;51077;42.716;23.344;2022-07-06T11:47:02;11.00;;;10.00;;
64667;SDS011;51077;42.716;23.344;2022-07-06T11:49:32;11.33;;;10.23;;
64667;SDS011;51077;42.716;23.344;2022-07-06T11:51:59;11.47;;;10.33;;
64667;SDS011;51077;42.716;23.344;2022-07-06T11:54:25;12.90;;;10.73;;
64667;SDS011;51077;42.716;23.344;2022-07-06T11:56:52;11.10;;;10.00;;
64667;SDS011;51077;42.716;23.344;2022-07-06T11:59:22;11.67;;;10.20;;
64667;SDS011;51077;42.716;23.344;2022-07-06T12:01:50;11.07;;;8.97;;
64667;SDS011;51077;42.716;23.344;2022-07-06T12:04:23;10.57;;;9.10;;
64667;SDS011;51077;42.716;23.344;2022-07-06T12:06:49;11.07;;;9.00;;
64667;SDS011;51077;42.716;23.344;2022-07-06T12:09:15;10.60;;;9.57;;
64667;SDS011;51077;42.716;23.344;2022-07-06T12:11:40;10.23;;;9.23;;
64667;SDS011;51077;42.716;23.344;2022-07-06T12:14:19;9.70;;;8.77;;
64667;SDS011;51077;42.716;23.344;2022-07-06T12:16:46;9.53;;;8.63;;
64667;SDS011;51077;42.716;23.344;2022-07-06T12:19:13;11.87;;;8.63;;
64667;SDS011;51077;42.716;23.344;2022-07-06T12:21:46;9.07;;;7.83;;
64667;SDS011;51077;42.716;23.344;2022-07-06T12:24:17;9.83;;;8.47;;
64667;SDS011;51077;42.716;23.344;2022-07-06T12:26:46;9.70;;;8.10;;
64667;SDS011;51077;42.716;23.344;2022-07-06T12:29:12;10.97;;;8.37;;
64667;SDS011;51077;42.716;23.344;2022-07-06T12:34:13;9.80;;;7.90;;
64667;SDS011;51077;42.716;23.344;2022-07-06T12:36:47;7.67;;;6.97;;
64667;SDS011;51077;42.716;23.344;2022-07-06T12:39:17;8.27;;;6.87;;
64667;SDS011;51077;42.716;23.344;2022-07-06T12:41:51;6.93;;;6.23;;
64667;SDS011;51077;42.716;23.344;2022-07-06T12:44:22;8.70;;;7.43;;
64667;SDS011;51077;42.716;23.344;2022-07-06T12:46:49;8.67;;;6.60;;
64667;SDS011;51077;42.716;23.344;2022-07-06T12:49:26;7.77;;;6.87;;
64667;SDS011;51077;42.716;23.344;2022-07-06T12:54:32;10.60;;;6.82;;
64667;SDS011;51077;42.716;23.344;2022-07-06T12:57:08;7.07;;;6.37;;
64667;SDS011;51077;42.716;23.344;2022-07-06T13:02:21;7.17;;;6.30;;
64667;SDS011;51077;42.716;23.344;2022-07-06T13:07:33;6.73;;;5.87;;
64667;SDS011;51077;42.716;23.344;2022-07-06T13:10:01;6.30;;;5.57;;
64667;SDS011;51077;42.716;23.344;2022-07-06T13:12:37;7.83;;;5.97;;
64667;SDS011;51077;42.716;23.344;2022-07-06T13:15:04;6.97;;;5.30;;
64667;SDS011;51077;42.716;23.344;2022-07-06T13:17:30;7.50;;;5.67;;
64667;SDS011;51077;42.716;23.344;2022-07-06T13:19:56;7.00;;;5.63;;
64667;SDS011;51077;42.716;23.344;2022-07-06T13:22:21;5.50;;;5.00;;
64667;SDS011;51077;42.716;23.344;2022-07-06T13:24:46;5.50;;;4.90;;
64667;SDS011;51077;42.716;23.344;2022-07-06T13:27:12;5.57;;;4.10;;
64667;SDS011;51077;42.716;23.344;2022-07-06T13:29:38;4.50;;;3.83;;
64667;SDS011;51077;42.716;23.344;2022-07-06T13:32:04;5.47;;;4.10;;
64667;SDS011;51077;42.716;23.344;2022-07-06T13:34:30;6.37;;;3.70;;
64667;SDS011;51077;42.716;23.344;2022-07-06T13:36:56;3.70;;;3.20;;
64667;SDS011;51077;42.716;23.344;2022-07-06T13:39:22;4.63;;;3.20;;
64667;SDS011;51077;42.716;23.344;2022-07-06T13:41:48;5.50;;;3.00;;
64667;SDS011;51077;42.716;23.344;2022-07-06T13:44:13;4.67;;;3.07;;
64667;SDS011;51077;42.716;23.344;2022-07-06T13:46:39;3.50;;;2.87;;
64667;SDS011;51077;42.716;23.344;2022-07-06T13:49:05;4.17;;;3.00;;
64667;SDS011;51077;42.716;23.344;2022-07-06T13:51:31;4.17;;;2.77;;
64667;SDS011;51077;42.716;23.344;2022-07-06T13:54:00;6.68;;;2.53;;
64667;SDS011;51077;42.716;23.344;2022-07-06T13:56:26;4.07;;;2.33;;
64667;SDS011;51077;42.716;23.344;2022-07-06T13:58:52;4.03;;;2.60;;
64667;SDS011;51077;42.716;23.344;2022-07-06T14:01:18;3.58;;;2.58;;
64667;SDS011;51077;42.716;23.344;2022-07-06T14:03:44;5.13;;;2.57;;
64667;SDS011;51077;42.716;23.344;2022-07-06T14:06:10;4.60;;;2.33;;
64667;SDS011;51077;42.716;23.344;2022-07-06T14:08:36;3.33;;;2.27;;
64667;SDS011;51077;42.716;23.344;2022-07-06T14:11:03;2.90;;;1.98;;
64667;SDS011;51077;42.716;23.344;2022-07-06T14:13:29;3.35;;;2.10;;
64667;SDS011;51077;42.716;23.344;2022-07-06T14:15:54;2.63;;;1.80;;
64667;SDS011;51077;42.716;23.344;2022-07-06T14:18:21;3.45;;;2.28;;
64667;SDS011;51077;42.716;23.344;2022-07-06T14:20:47;3.45;;;1.80;;
64667;SDS011;51077;42.716;23.344;2022-07-06T14:23:13;2.40;;;1.67;;
64667;SDS011;51077;42.716;23.344;2022-07-06T14:25:40;3.92;;;2.13;;
64667;SDS011;51077;42.716;23.344;2022-07-06T14:28:06;2.85;;;2.00;;
64667;SDS011;51077;42.716;23.344;2022-07-06T14:30:32;3.80;;;1.50;;
64667;SDS011;51077;42.716;23.344;2022-07-06T14:32:58;3.80;;;1.92;;
64667;SDS011;51077;42.716;23.344;2022-07-06T14:35:24;5.30;;;1.80;;
64667;SDS011;51077;42.716;23.344;2022-07-06T14:37:50;4.03;;;1.90;;
64667;SDS011;51077;42.716;23.344;2022-07-06T14:40:15;4.33;;;1.60;;
64667;SDS011;51077;42.716;23.344;2022-07-06T14:42:41;3.90;;;1.53;;
64667;SDS011;51077;42.716;23.344;2022-07-06T14:45:07;2.80;;;1.97;;
64667;SDS011;51077;42.716;23.344;2022-07-06T14:47:32;3.50;;;2.00;;
64667;SDS011;51077;42.716;23.344;2022-07-06T14:49:58;3.70;;;2.07;;
64667;SDS011;51077;42.716;23.344;2022-07-06T14:52:23;5.00;;;2.33;;
64667;SDS011;51077;42.716;23.344;2022-07-06T14:54:48;6.40;;;2.43;;
64667;SDS011;51077;42.716;23.344;2022-07-06T14:57:14;6.97;;;3.30;;
64667;SDS011;51077;42.716;23.344;2022-07-06T14:59:39;8.60;;;2.70;;
64667;SDS011;51077;42.716;23.344;2022-07-06T15:02:05;7.13;;;2.50;;
64667;SDS011;51077;42.716;23.344;2022-07-06T15:04:30;6.27;;;3.30;;
64667;SDS011;51077;42.716;23.344;2022-07-06T15:06:58;4.88;;;3.05;;
64667;SDS011;51077;42.716;23.344;2022-07-06T15:09:23;4.60;;;2.20;;
64667;SDS011;51077;42.716;23.344;2022-07-06T15:11:51;7.55;;;3.38;;
64667;SDS011;51077;42.716;23.344;2022-07-06T15:14:17;15.63;;;6.38;;
64667;SDS011;51077;42.716;23.344;2022-07-06T15:16:43;9.27;;;4.68;;
64667;SDS011;51077;42.716;23.344;2022-07-06T15:19:09;5.97;;;3.30;;
64667;SDS011;51077;42.716;23.344;2022-07-06T15:21:35;5.00;;;2.53;;
64667;SDS011;51077;42.716;23.344;2022-07-06T15:24:00;4.03;;;2.50;;
64667;SDS011;51077;42.716;23.344;2022-07-06T15:26:25;4.10;;;2.10;;
64667;SDS011;51077;42.716;23.344;2022-07-06T15:28:51;2.70;;;1.70;;
64667;SDS011;51077;42.716;23.344;2022-07-06T15:31:16;3.27;;;2.00;;
64667;SDS011;51077;42.716;23.344;2022-07-06T15:33:42;5.77;;;2.03;;
64667;SDS011;51077;42.716;23.344;2022-07-06T15:36:07;6.43;;;2.00;;
64667;SDS011;51077;42.716;23.344;2022-07-06T15:38:33;4.07;;;2.03;;
64667;SDS011;51077;42.716;23.344;2022-07-06T15:40:59;2.90;;;1.88;;
64667;SDS011;51077;42.716;23.344;2022-07-06T15:43:28;3.53;;;2.03;;
64667;SDS011;51077;42.716;23.344;2022-07-06T15:45:55;4.75;;;1.92;;
64667;SDS011;51077;42.716;23.344;2022-07-06T15:48:23;4.90;;;2.10;;
64667;SDS011;51077;42.716;23.344;2022-07-06T15:50:49;3.45;;;2.25;;
64667;SDS011;51077;42.716;23.344;2022-07-06T15:53:14;2.77;;;1.87;;
64667;SDS011;51077;42.716;23.344;2022-07-06T15:55:41;3.10;;;2.15;;
64667;SDS011;51077;42.716;23.344;2022-07-06T15:58:06;3.60;;;1.97;;
64667;SDS011;51077;42.716;23.344;2022-07-06T16:00:31;3.47;;;2.03;;